sensor_id;sensor_type;location;lat;lon;timestamp;temperature;humidity
29237;DHT22;16266;50.866;4.398;2023-05-07T00:00:34;16.90;99.90
29237;DHT22;16266;50.866;4.398;2023-05-07T00:02:59;16.90;99.90
29237;DHT22;16266;50.866;4.398;2023-05-07T00:05:25;16.90;99.90
29237;DHT22;16266;50.866;4.398;2023-05-07T00:07:51;16.90;99.90
29237;DHT22;16266;50.866;4.398;2023-05-07T00:10:18;17.00;99.90
29237;DHT22;16266;50.866;4.398;2023-05-07T00:12:44;16.90;99.90
29237;DHT22;16266;50.866;4.398;2023-05-07T00:15:10;16.90;99.90
29237;DHT22;16266;50.866;4.398;2023-05-07T00:17:36;16.90;99.90
29237;DHT22;16266;50.866;4.398;2023-05-07T00:20:03;16.90;99.90
29237;DHT22;16266;50.866;4.398;2023-05-07T00:22:29;16.90;99.90
29237;DHT22;16266;50.866;4.398;2023-05-07T00:24:56;16.90;99.90
29237;DHT22;16266;50.866;4.398;2023-05-07T00:27:22;16.80;99.90
29237;DHT22;16266;50.866;4.398;2023-05-07T00:29:48;16.90;99.90
29237;DHT22;16266;50.866;4.398;2023-05-07T00:32:13;16.90;99.90
29237;DHT22;16266;50.866;4.398;2023-05-07T00:34:39;17.00;99.90
29237;DHT22;16266;50.866;4.398;2023-05-07T00:37:05;17.00;99.90
29237;DHT22;16266;50.866;4.398;2023-05-07T00:39:33;17.00;99.90
29237;DHT22;16266;50.866;4.398;2023-05-07T00:41:59;17.00;99.90
29237;DHT22;16266;50.866;4.398;2023-05-07T00:44:26;17.10;99.90
29237;DHT22;16266;50.866;4.398;2023-05-07T00:46:52;17.10;99.90
29237;DHT22;16266;50.866;4.398;2023-05-07T00:49:18;17.10;99.90
29237;DHT22;16266;50.866;4.398;2023-05-07T00:51:45;17.00;99.90
29237;DHT22;16266;50.866;4.398;2023-05-07T00:54:11;17.00;99.90
29237;DHT22;16266;50.866;4.398;2023-05-07T00:56:37;17.00;99.90
29237;DHT22;16266;50.866;4.398;2023-05-07T00:59:04;17.00;99.90
29237;DHT22;16266;50.866;4.398;2023-05-07T01:01:31;17.00;99.90
29237;DHT22;16266;50.866;4.398;2023-05-07T01:03:57;17.00;99.90
29237;DHT22;16266;50.866;4.398;2023-05-07T01:06:23;17.00;99.90
29237;DHT22;16266;50.866;4.398;2023-05-07T01:08:51;17.00;99.90
29237;DHT22;16266;50.866;4.398;2023-05-07T01:11:18;17.10;99.90
29237;DHT22;16266;50.866;4.398;2023-05-07T01:13:46;17.10;99.90
29237;DHT22;16266;50.866;4.398;2023-05-07T01:16:12;17.10;99.90
29237;DHT22;16266;50.866;4.398;2023-05-07T01:18:37;17.10;99.90
29237;DHT22;16266;50.866;4.398;2023-05-07T01:21:04;17.20;99.90
29237;DHT22;16266;50.866;4.398;2023-05-07T01:23:30;17.20;99.90
29237;DHT22;16266;50.866;4.398;2023-05-07T01:25:56;17.10;99.90
29237;DHT22;16266;50.866;4.398;2023-05-07T01:28:22;17.10;99.90
29237;DHT22;16266;50.866;4.398;2023-05-07T01:31:00;17.00;99.90
29237;DHT22;16266;50.866;4.398;2023-05-07T01:33:31;17.00;99.90
29237;DHT22;16266;50.866;4.398;2023-05-07T01:35:57;17.00;99.90
29237;DHT22;16266;50.866;4.398;2023-05-07T01:38:27;16.90;99.90
29237;DHT22;16266;50.866;4.398;2023-05-07T01:40:53;16.70;99.90
29237;DHT22;16266;50.866;4.398;2023-05-07T01:43:19;16.70;99.90
29237;DHT22;16266;50.866;4.398;2023-05-07T01:45:46;16.80;99.90
29237;DHT22;16266;50.866;4.398;2023-05-07T01:48:13;16.80;99.90
29237;DHT22;16266;50.866;4.398;2023-05-07T01:50:39;16.90;99.90
29237;DHT22;16266;50.866;4.398;2023-05-07T01:53:06;16.90;99.90
29237;DHT22;16266;50.866;4.398;2023-05-07T01:55:32;16.80;99.90
29237;DHT22;16266;50.866;4.398;2023-05-07T01:57:57;16.70;99.90
29237;DHT22;16266;50.866;4.398;2023-05-07T02:00:23;16.70;99.90
29237;DHT22;16266;50.866;4.398;2023-05-07T02:02:49;16.70;99.90
29237;DHT22;16266;50.866;4.398;2023-05-07T02:05:14;16.80;99.90
29237;DHT22;16266;50.866;4.398;2023-05-07T02:07:41;16.80;99.90
29237;DHT22;16266;50.866;4.398;2023-05-07T02:10:07;16.70;99.90
29237;DHT22;16266;50.866;4.398;2023-05-07T02:12:33;16.80;99.90
29237;DHT22;16266;50.866;4.398;2023-05-07T02:14:58;16.70;99.90
29237;DHT22;16266;50.866;4.398;2023-05-07T02:17:24;16.70;99.90
29237;DHT22;16266;50.866;4.398;2023-05-07T02:19:49;16.70;99.90
29237;DHT22;16266;50.866;4.398;2023-05-07T02:22:15;16.60;99.90
29237;DHT22;16266;50.866;4.398;2023-05-07T02:24:40;16.60;99.90
29237;DHT22;16266;50.866;4.398;2023-05-07T02:27:06;16.50;99.90
29237;DHT22;16266;50.866;4.398;2023-05-07T02:29:32;16.50;99.90
29237;DHT22;16266;50.866;4.398;2023-05-07T02:31:57;16.40;99.90
29237;DHT22;16266;50.866;4.398;2023-05-07T02:34:23;16.40;99.90
29237;DHT22;16266;50.866;4.398;2023-05-07T02:36:49;16.40;99.90
29237;DHT22;16266;50.866;4.398;2023-05-07T02:39:16;16.40;99.90
29237;DHT22;16266;50.866;4.398;2023-05-07T02:41:42;16.40;99.90
29237;DHT22;16266;50.866;4.398;2023-05-07T02:44:07;16.30;99.90
29237;DHT22;16266;50.866;4.398;2023-05-07T02:46:33;16.20;99.90
29237;DHT22;16266;50.866;4.398;2023-05-07T02:48:59;16.10;99.90
29237;DHT22;16266;50.866;4.398;2023-05-07T02:51:25;16.10;99.90
29237;DHT22;16266;50.866;4.398;2023-05-07T02:53:51;16.00;99.90
29237;DHT22;16266;50.866;4.398;2023-05-07T02:56:17;15.90;99.90
29237;DHT22;16266;50.866;4.398;2023-05-07T02:58:42;15.90;99.90
29237;DHT22;16266;50.866;4.398;2023-05-07T03:01:08;15.90;99.90
29237;DHT22;16266;50.866;4.398;2023-05-07T03:03:34;16.00;99.90
29237;DHT22;16266;50.866;4.398;2023-05-07T03:06:00;16.10;99.90
29237;DHT22;16266;50.866;4.398;2023-05-07T03:08:26;16.20;99.90
29237;DHT22;16266;50.866;4.398;2023-05-07T03:10:53;16.30;99.90
29237;DHT22;16266;50.866;4.398;2023-05-07T03:13:19;16.30;99.90
29237;DHT22;16266;50.866;4.398;2023-05-07T03:15:44;16.30;99.90
29237;DHT22;16266;50.866;4.398;2023-05-07T03:18:10;16.40;99.90
29237;DHT22;16266;50.866;4.398;2023-05-07T03:20:36;16.40;99.90
29237;DHT22;16266;50.866;4.398;2023-05-07T03:23:02;16.50;99.90
29237;DHT22;16266;50.866;4.398;2023-05-07T03:25:28;16.60;99.90
29237;DHT22;16266;50.866;4.398;2023-05-07T03:27:55;16.70;99.90
29237;DHT22;16266;50.866;4.398;2023-05-07T03:30:21;16.70;99.90
29237;DHT22;16266;50.866;4.398;2023-05-07T03:32:47;16.80;99.90
29237;DHT22;16266;50.866;4.398;2023-05-07T03:35:12;16.90;99.90
29237;DHT22;16266;50.866;4.398;2023-05-07T03:37:38;17.00;99.90
29237;DHT22;16266;50.866;4.398;2023-05-07T03:40:05;17.10;99.90
29237;DHT22;16266;50.866;4.398;2023-05-07T03:42:31;17.10;99.90
29237;DHT22;16266;50.866;4.398;2023-05-07T03:44:56;17.10;99.90
29237;DHT22;16266;50.866;4.398;2023-05-07T03:47:22;17.10;99.90
29237;DHT22;16266;50.866;4.398;2023-05-07T03:49:47;17.10;99.90
29237;DHT22;16266;50.866;4.398;2023-05-07T03:52:14;17.10;99.90
29237;DHT22;16266;50.866;4.398;2023-05-07T03:54:41;17.10;99.90
29237;DHT22;16266;50.866;4.398;2023-05-07T03:57:06;17.00;99.90
29237;DHT22;16266;50.866;4.398;2023-05-07T03:59:32;17.00;99.90
29237;DHT22;16266;50.866;4.398;2023-05-07T04:01:58;17.10;99.90
29237;DHT22;16266;50.866;4.398;2023-05-07T04:04:23;17.10;99.90
29237;DHT22;16266;50.866;4.398;2023-05-07T04:06:49;17.10;99.90
29237;DHT22;16266;50.866;4.398;2023-05-07T04:09:15;17.10;99.90
29237;DHT22;16266;50.866;4.398;2023-05-07T04:11:40;17.00;99.90
29237;DHT22;16266;50.866;4.398;2023-05-07T04:14:06;17.10;99.90
29237;DHT22;16266;50.866;4.398;2023-05-07T04:16:32;17.00;99.90
29237;DHT22;16266;50.866;4.398;2023-05-07T04:18:57;17.10;99.90
29237;DHT22;16266;50.866;4.398;2023-05-07T04:21:23;17.10;99.90
29237;DHT22;16266;50.866;4.398;2023-05-07T04:23:49;17.10;99.90
29237;DHT22;16266;50.866;4.398;2023-05-07T04:26:15;17.20;99.90
29237;DHT22;16266;50.866;4.398;2023-05-07T04:28:41;17.30;99.90
29237;DHT22;16266;50.866;4.398;2023-05-07T04:31:07;17.30;99.90
29237;DHT22;16266;50.866;4.398;2023-05-07T04:33:33;17.40;99.90
29237;DHT22;16266;50.866;4.398;2023-05-07T04:36:03;17.40;99.90
29237;DHT22;16266;50.866;4.398;2023-05-07T04:38:30;17.50;99.90
29237;DHT22;16266;50.866;4.398;2023-05-07T04:40:57;17.60;99.90
29237;DHT22;16266;50.866;4.398;2023-05-07T04:43:23;17.60;99.90
29237;DHT22;16266;50.866;4.398;2023-05-07T04:45:50;17.60;99.90
29237;DHT22;16266;50.866;4.398;2023-05-07T04:48:16;17.70;99.90
29237;DHT22;16266;50.866;4.398;2023-05-07T04:50:46;17.70;99.90
29237;DHT22;16266;50.866;4.398;2023-05-07T04:53:12;17.80;99.90
29237;DHT22;16266;50.866;4.398;2023-05-07T04:55:38;17.90;99.90
29237;DHT22;16266;50.866;4.398;2023-05-07T04:58:03;18.00;99.90
29237;DHT22;16266;50.866;4.398;2023-05-07T05:00:30;18.20;99.90
29237;DHT22;16266;50.866;4.398;2023-05-07T05:02:56;18.30;99.90
29237;DHT22;16266;50.866;4.398;2023-05-07T05:05:21;18.40;99.90
29237;DHT22;16266;50.866;4.398;2023-05-07T05:07:47;18.40;99.90
29237;DHT22;16266;50.866;4.398;2023-05-07T05:10:12;18.40;99.90
29237;DHT22;16266;50.866;4.398;2023-05-07T05:12:38;18.50;99.90
29237;DHT22;16266;50.866;4.398;2023-05-07T05:15:04;18.60;99.90
29237;DHT22;16266;50.866;4.398;2023-05-07T05:17:30;18.70;99.90
29237;DHT22;16266;50.866;4.398;2023-05-07T05:19:56;18.80;99.90
29237;DHT22;16266;50.866;4.398;2023-05-07T05:22:22;18.90;99.90
29237;DHT22;16266;50.866;4.398;2023-05-07T05:24:47;19.10;99.90
29237;DHT22;16266;50.866;4.398;2023-05-07T05:27:13;19.30;99.90
29237;DHT22;16266;50.866;4.398;2023-05-07T05:29:38;19.40;99.90
29237;DHT22;16266;50.866;4.398;2023-05-07T05:32:04;19.60;99.90
29237;DHT22;16266;50.866;4.398;2023-05-07T05:34:30;19.80;99.90
29237;DHT22;16266;50.866;4.398;2023-05-07T05:36:56;19.90;99.90
29237;DHT22;16266;50.866;4.398;2023-05-07T05:39:22;20.10;99.90
29237;DHT22;16266;50.866;4.398;2023-05-07T05:41:48;20.10;99.90
29237;DHT22;16266;50.866;4.398;2023-05-07T05:44:14;20.10;99.90
29237;DHT22;16266;50.866;4.398;2023-05-07T05:46:40;20.00;99.90
29237;DHT22;16266;50.866;4.398;2023-05-07T05:49:06;20.00;99.90
29237;DHT22;16266;50.866;4.398;2023-05-07T05:51:32;20.10;99.90
29237;DHT22;16266;50.866;4.398;2023-05-07T05:53:57;20.10;99.90
29237;DHT22;16266;50.866;4.398;2023-05-07T05:56:23;20.20;99.90
29237;DHT22;16266;50.866;4.398;2023-05-07T05:58:49;20.20;99.90
29237;DHT22;16266;50.866;4.398;2023-05-07T06:01:14;20.40;99.90
29237;DHT22;16266;50.866;4.398;2023-05-07T06:03:40;20.30;99.90
29237;DHT22;16266;50.866;4.398;2023-05-07T06:06:06;20.30;99.90
29237;DHT22;16266;50.866;4.398;2023-05-07T06:08:31;20.00;99.90
29237;DHT22;16266;50.866;4.398;2023-05-07T06:10:58;19.70;99.90
29237;DHT22;16266;50.866;4.398;2023-05-07T06:13:23;19.40;99.90
29237;DHT22;16266;50.866;4.398;2023-05-07T06:15:49;19.20;99.90
29237;DHT22;16266;50.866;4.398;2023-05-07T06:18:15;19.20;99.90
29237;DHT22;16266;50.866;4.398;2023-05-07T06:20:41;19.10;99.90
29237;DHT22;16266;50.866;4.398;2023-05-07T06:23:06;19.10;99.90
29237;DHT22;16266;50.866;4.398;2023-05-07T06:25:33;19.00;99.90
29237;DHT22;16266;50.866;4.398;2023-05-07T06:27:58;19.00;99.90
29237;DHT22;16266;50.866;4.398;2023-05-07T06:30:24;18.90;99.90
29237;DHT22;16266;50.866;4.398;2023-05-07T06:32:50;18.80;99.90
29237;DHT22;16266;50.866;4.398;2023-05-07T06:35:15;18.90;99.90
29237;DHT22;16266;50.866;4.398;2023-05-07T06:37:42;18.90;99.90
29237;DHT22;16266;50.866;4.398;2023-05-07T06:40:10;19.00;99.90
29237;DHT22;16266;50.866;4.398;2023-05-07T06:42:36;19.20;99.90
29237;DHT22;16266;50.866;4.398;2023-05-07T06:45:03;19.20;99.90
29237;DHT22;16266;50.866;4.398;2023-05-07T06:47:28;19.20;99.90
29237;DHT22;16266;50.866;4.398;2023-05-07T06:49:54;19.30;99.90
29237;DHT22;16266;50.866;4.398;2023-05-07T06:52:20;19.40;99.90
29237;DHT22;16266;50.866;4.398;2023-05-07T06:54:46;19.50;99.90
29237;DHT22;16266;50.866;4.398;2023-05-07T06:57:11;19.60;99.90
29237;DHT22;16266;50.866;4.398;2023-05-07T06:59:37;19.50;99.90
29237;DHT22;16266;50.866;4.398;2023-05-07T07:02:02;19.50;99.90
29237;DHT22;16266;50.866;4.398;2023-05-07T07:04:28;19.60;99.90
29237;DHT22;16266;50.866;4.398;2023-05-07T07:06:54;19.40;99.90
29237;DHT22;16266;50.866;4.398;2023-05-07T07:09:19;19.10;99.90
29237;DHT22;16266;50.866;4.398;2023-05-07T07:11:45;18.90;99.90
29237;DHT22;16266;50.866;4.398;2023-05-07T07:14:11;18.80;99.90
29237;DHT22;16266;50.866;4.398;2023-05-07T07:16:36;18.80;99.90
29237;DHT22;16266;50.866;4.398;2023-05-07T07:19:02;18.70;99.90
29237;DHT22;16266;50.866;4.398;2023-05-07T07:21:27;18.70;99.90
29237;DHT22;16266;50.866;4.398;2023-05-07T07:23:53;18.60;99.90
29237;DHT22;16266;50.866;4.398;2023-05-07T07:26:19;18.60;99.90
29237;DHT22;16266;50.866;4.398;2023-05-07T07:28:45;18.40;99.90
29237;DHT22;16266;50.866;4.398;2023-05-07T07:31:12;18.50;99.90
29237;DHT22;16266;50.866;4.398;2023-05-07T07:33:38;18.60;99.90
29237;DHT22;16266;50.866;4.398;2023-05-07T07:36:06;18.60;99.90
29237;DHT22;16266;50.866;4.398;2023-05-07T07:38:33;18.50;99.90
29237;DHT22;16266;50.866;4.398;2023-05-07T07:41:00;18.60;99.90
29237;DHT22;16266;50.866;4.398;2023-05-07T07:43:25;18.70;99.90
29237;DHT22;16266;50.866;4.398;2023-05-07T07:45:51;18.80;99.90
29237;DHT22;16266;50.866;4.398;2023-05-07T07:48:17;18.80;99.90
29237;DHT22;16266;50.866;4.398;2023-05-07T07:50:42;18.90;99.90
29237;DHT22;16266;50.866;4.398;2023-05-07T07:53:08;18.80;99.90
29237;DHT22;16266;50.866;4.398;2023-05-07T07:55:41;18.90;99.90
29237;DHT22;16266;50.866;4.398;2023-05-07T07:58:07;19.00;99.90
29237;DHT22;16266;50.866;4.398;2023-05-07T08:00:32;19.20;99.90
29237;DHT22;16266;50.866;4.398;2023-05-07T08:02:58;19.20;99.90
29237;DHT22;16266;50.866;4.398;2023-05-07T08:05:24;19.10;99.90
29237;DHT22;16266;50.866;4.398;2023-05-07T08:07:50;19.20;99.90
29237;DHT22;16266;50.866;4.398;2023-05-07T08:10:17;19.00;99.90
29237;DHT22;16266;50.866;4.398;2023-05-07T08:12:47;19.00;99.90
29237;DHT22;16266;50.866;4.398;2023-05-07T08:15:13;19.00;99.90
29237;DHT22;16266;50.866;4.398;2023-05-07T08:17:39;19.10;99.90
29237;DHT22;16266;50.866;4.398;2023-05-07T08:20:05;19.20;99.90
29237;DHT22;16266;50.866;4.398;2023-05-07T08:22:31;19.20;99.90
29237;DHT22;16266;50.866;4.398;2023-05-07T08:24:57;19.30;99.90
29237;DHT22;16266;50.866;4.398;2023-05-07T08:27:23;19.40;99.90
29237;DHT22;16266;50.866;4.398;2023-05-07T08:29:48;19.40;99.90
29237;DHT22;16266;50.866;4.398;2023-05-07T08:32:14;19.50;99.90
29237;DHT22;16266;50.866;4.398;2023-05-07T08:34:40;19.40;99.90
29237;DHT22;16266;50.866;4.398;2023-05-07T08:37:05;19.40;99.90
29237;DHT22;16266;50.866;4.398;2023-05-07T08:39:31;19.30;99.90
29237;DHT22;16266;50.866;4.398;2023-05-07T08:41:57;19.30;99.90
29237;DHT22;16266;50.866;4.398;2023-05-07T08:44:26;19.30;99.90
29237;DHT22;16266;50.866;4.398;2023-05-07T08:46:53;19.30;99.90
29237;DHT22;16266;50.866;4.398;2023-05-07T08:49:21;19.20;99.90
29237;DHT22;16266;50.866;4.398;2023-05-07T08:51:47;19.40;99.90
29237;DHT22;16266;50.866;4.398;2023-05-07T08:54:16;19.40;99.90
29237;DHT22;16266;50.866;4.398;2023-05-07T08:56:42;19.40;99.90
29237;DHT22;16266;50.866;4.398;2023-05-07T08:59:07;19.50;99.90
29237;DHT22;16266;50.866;4.398;2023-05-07T09:01:33;19.60;99.90
29237;DHT22;16266;50.866;4.398;2023-05-07T09:04:01;19.60;99.90
29237;DHT22;16266;50.866;4.398;2023-05-07T09:06:27;19.60;99.90
29237;DHT22;16266;50.866;4.398;2023-05-07T09:08:54;19.60;99.90
29237;DHT22;16266;50.866;4.398;2023-05-07T09:11:23;19.50;99.90
29237;DHT22;16266;50.866;4.398;2023-05-07T09:13:53;19.70;99.90
29237;DHT22;16266;50.866;4.398;2023-05-07T09:16:21;19.70;99.90
29237;DHT22;16266;50.866;4.398;2023-05-07T09:18:48;19.80;99.90
29237;DHT22;16266;50.866;4.398;2023-05-07T09:21:17;19.80;99.90
29237;DHT22;16266;50.866;4.398;2023-05-07T09:23:43;19.70;99.90
29237;DHT22;16266;50.866;4.398;2023-05-07T09:26:08;19.90;99.90
29237;DHT22;16266;50.866;4.398;2023-05-07T09:28:40;19.90;99.90
29237;DHT22;16266;50.866;4.398;2023-05-07T09:31:07;19.90;99.90
29237;DHT22;16266;50.866;4.398;2023-05-07T09:33:33;20.00;99.90
29237;DHT22;16266;50.866;4.398;2023-05-07T09:36:04;20.10;99.90
29237;DHT22;16266;50.866;4.398;2023-05-07T09:38:31;20.10;99.90
29237;DHT22;16266;50.866;4.398;2023-05-07T09:41:08;20.20;99.90
29237;DHT22;16266;50.866;4.398;2023-05-07T09:43:36;20.50;99.90
29237;DHT22;16266;50.866;4.398;2023-05-07T09:46:03;20.60;99.90
29237;DHT22;16266;50.866;4.398;2023-05-07T09:48:32;20.70;99.90
29237;DHT22;16266;50.866;4.398;2023-05-07T09:51:02;20.70;99.90
29237;DHT22;16266;50.866;4.398;2023-05-07T09:53:30;20.80;99.90
29237;DHT22;16266;50.866;4.398;2023-05-07T09:55:57;20.80;99.90
29237;DHT22;16266;50.866;4.398;2023-05-07T09:58:23;20.80;99.90
29237;DHT22;16266;50.866;4.398;2023-05-07T10:00:51;20.70;99.90
29237;DHT22;16266;50.866;4.398;2023-05-07T10:03:19;20.70;99.90
29237;DHT22;16266;50.866;4.398;2023-05-07T10:05:46;20.50;99.90
29237;DHT22;16266;50.866;4.398;2023-05-07T10:08:13;20.30;99.90
29237;DHT22;16266;50.866;4.398;2023-05-07T10:10:39;20.10;99.90
29237;DHT22;16266;50.866;4.398;2023-05-07T10:13:05;20.10;99.90
29237;DHT22;16266;50.866;4.398;2023-05-07T10:15:36;20.10;99.90
29237;DHT22;16266;50.866;4.398;2023-05-07T10:18:03;20.10;99.90
29237;DHT22;16266;50.866;4.398;2023-05-07T10:20:30;20.10;99.90
29237;DHT22;16266;50.866;4.398;2023-05-07T10:22:57;20.00;99.90
29237;DHT22;16266;50.866;4.398;2023-05-07T10:25:30;20.10;99.90
29237;DHT22;16266;50.866;4.398;2023-05-07T10:28:04;20.00;99.90
29237;DHT22;16266;50.866;4.398;2023-05-07T10:33:01;20.30;99.90
29237;DHT22;16266;50.866;4.398;2023-05-07T10:35:36;20.30;99.90
29237;DHT22;16266;50.866;4.398;2023-05-07T10:38:03;20.40;99.90
29237;DHT22;16266;50.866;4.398;2023-05-07T10:40:30;20.40;99.90
29237;DHT22;16266;50.866;4.398;2023-05-07T10:42:58;20.40;99.90
29237;DHT22;16266;50.866;4.398;2023-05-07T10:45:28;20.40;99.90
29237;DHT22;16266;50.866;4.398;2023-05-07T10:48:16;20.40;99.90
29237;DHT22;16266;50.866;4.398;2023-05-07T10:50:43;20.40;99.90
29237;DHT22;16266;50.866;4.398;2023-05-07T11:00:49;20.40;99.90
29237;DHT22;16266;50.866;4.398;2023-05-07T11:03:15;20.30;99.90
29237;DHT22;16266;50.866;4.398;2023-05-07T11:05:41;20.20;99.90
29237;DHT22;16266;50.866;4.398;2023-05-07T11:08:08;20.30;99.90
29237;DHT22;16266;50.866;4.398;2023-05-07T11:10:54;20.50;99.90
29237;DHT22;16266;50.866;4.398;2023-05-07T11:16:24;20.60;99.90
29237;DHT22;16266;50.866;4.398;2023-05-07T11:18:51;20.50;99.90
29237;DHT22;16266;50.866;4.398;2023-05-07T11:21:41;20.60;99.90
29237;DHT22;16266;50.866;4.398;2023-05-07T11:24:08;20.60;99.90
29237;DHT22;16266;50.866;4.398;2023-05-07T11:26:47;20.50;99.90
29237;DHT22;16266;50.866;4.398;2023-05-07T11:29:20;20.60;99.90
29237;DHT22;16266;50.866;4.398;2023-05-07T11:31:51;20.80;99.90
29237;DHT22;16266;50.866;4.398;2023-05-07T11:34:21;20.80;99.90
29237;DHT22;16266;50.866;4.398;2023-05-07T11:36:48;20.90;99.90
29237;DHT22;16266;50.866;4.398;2023-05-07T11:39:24;20.90;99.90
29237;DHT22;16266;50.866;4.398;2023-05-07T11:41:50;21.20;99.90
29237;DHT22;16266;50.866;4.398;2023-05-07T11:44:16;21.50;99.90
29237;DHT22;16266;50.866;4.398;2023-05-07T11:46:43;21.80;99.90
29237;DHT22;16266;50.866;4.398;2023-05-07T11:49:10;21.80;99.90
29237;DHT22;16266;50.866;4.398;2023-05-07T11:51:35;21.60;99.90
29237;DHT22;16266;50.866;4.398;2023-05-07T11:54:03;21.40;99.90
29237;DHT22;16266;50.866;4.398;2023-05-07T11:56:33;21.40;99.90
29237;DHT22;16266;50.866;4.398;2023-05-07T11:58:59;21.50;99.90
29237;DHT22;16266;50.866;4.398;2023-05-07T12:01:24;21.40;99.90
29237;DHT22;16266;50.866;4.398;2023-05-07T12:03:50;21.70;99.90
29237;DHT22;16266;50.866;4.398;2023-05-07T12:06:16;21.80;99.90
29237;DHT22;16266;50.866;4.398;2023-05-07T12:08:43;22.10;99.90
29237;DHT22;16266;50.866;4.398;2023-05-07T12:11:13;22.40;99.90
29237;DHT22;16266;50.866;4.398;2023-05-07T12:13:41;22.40;99.90
29237;DHT22;16266;50.866;4.398;2023-05-07T12:16:07;22.50;99.90
29237;DHT22;16266;50.866;4.398;2023-05-07T12:18:34;22.60;99.90
29237;DHT22;16266;50.866;4.398;2023-05-07T12:21:01;22.70;99.90
29237;DHT22;16266;50.866;4.398;2023-05-07T12:23:27;22.70;99.90
29237;DHT22;16266;50.866;4.398;2023-05-07T12:25:53;22.60;99.90
29237;DHT22;16266;50.866;4.398;2023-05-07T12:28:20;22.50;99.90
29237;DHT22;16266;50.866;4.398;2023-05-07T12:30:47;22.40;99.90
29237;DHT22;16266;50.866;4.398;2023-05-07T12:33:24;22.50;99.90
29237;DHT22;16266;50.866;4.398;2023-05-07T12:35:50;22.60;99.90
29237;DHT22;16266;50.866;4.398;2023-05-07T12:38:18;22.80;99.90
29237;DHT22;16266;50.866;4.398;2023-05-07T12:40:48;22.70;99.90
29237;DHT22;16266;50.866;4.398;2023-05-07T12:43:45;22.70;99.90
29237;DHT22;16266;50.866;4.398;2023-05-07T12:46:11;22.70;99.90
29237;DHT22;16266;50.866;4.398;2023-05-07T12:48:44;22.80;99.90
29237;DHT22;16266;50.866;4.398;2023-05-07T12:51:11;22.70;99.90
29237;DHT22;16266;50.866;4.398;2023-05-07T12:53:40;22.70;99.90
29237;DHT22;16266;50.866;4.398;2023-05-07T12:56:08;22.70;99.90
29237;DHT22;16266;50.866;4.398;2023-05-07T12:58:34;22.80;99.90
29237;DHT22;16266;50.866;4.398;2023-05-07T13:01:04;22.90;99.90
29237;DHT22;16266;50.866;4.398;2023-05-07T13:03:32;23.00;99.90
29237;DHT22;16266;50.866;4.398;2023-05-07T13:06:01;23.20;99.90
29237;DHT22;16266;50.866;4.398;2023-05-07T13:08:37;23.20;99.90
29237;DHT22;16266;50.866;4.398;2023-05-07T13:11:07;23.40;99.90
29237;DHT22;16266;50.866;4.398;2023-05-07T13:13:35;23.50;99.90
29237;DHT22;16266;50.866;4.398;2023-05-07T13:16:02;23.60;99.90
29237;DHT22;16266;50.866;4.398;2023-05-07T13:18:29;23.60;99.90
29237;DHT22;16266;50.866;4.398;2023-05-07T13:20:56;23.50;99.90
29237;DHT22;16266;50.866;4.398;2023-05-07T13:23:22;23.50;99.90
29237;DHT22;16266;50.866;4.398;2023-05-07T13:25:48;23.40;99.90
29237;DHT22;16266;50.866;4.398;2023-05-07T13:28:14;23.40;99.90
29237;DHT22;16266;50.866;4.398;2023-05-07T13:30:40;23.30;99.90
29237;DHT22;16266;50.866;4.398;2023-05-07T13:33:08;23.20;99.90
29237;DHT22;16266;50.866;4.398;2023-05-07T13:35:34;23.40;99.90
29237;DHT22;16266;50.866;4.398;2023-05-07T13:38:01;23.40;99.90
29237;DHT22;16266;50.866;4.398;2023-05-07T13:40:27;23.50;99.90
29237;DHT22;16266;50.866;4.398;2023-05-07T13:42:53;23.70;99.90
29237;DHT22;16266;50.866;4.398;2023-05-07T13:45:20;23.70;99.90
29237;DHT22;16266;50.866;4.398;2023-05-07T13:47:46;23.50;99.90
29237;DHT22;16266;50.866;4.398;2023-05-07T13:50:12;23.50;99.90
29237;DHT22;16266;50.866;4.398;2023-05-07T13:52:42;23.50;99.90
29237;DHT22;16266;50.866;4.398;2023-05-07T13:55:09;23.60;99.90
29237;DHT22;16266;50.866;4.398;2023-05-07T13:57:36;23.60;99.90
29237;DHT22;16266;50.866;4.398;2023-05-07T14:00:03;23.90;99.90
29237;DHT22;16266;50.866;4.398;2023-05-07T14:02:30;23.70;99.90
29237;DHT22;16266;50.866;4.398;2023-05-07T14:04:56;23.50;99.90
29237;DHT22;16266;50.866;4.398;2023-05-07T14:07:22;23.70;99.90
29237;DHT22;16266;50.866;4.398;2023-05-07T14:09:47;23.70;99.90
29237;DHT22;16266;50.866;4.398;2023-05-07T14:12:13;23.80;99.90
29237;DHT22;16266;50.866;4.398;2023-05-07T14:14:39;23.90;99.90
29237;DHT22;16266;50.866;4.398;2023-05-07T14:17:04;24.00;99.90
29237;DHT22;16266;50.866;4.398;2023-05-07T14:19:30;24.20;99.90
29237;DHT22;16266;50.866;4.398;2023-05-07T14:21:55;24.20;99.90
29237;DHT22;16266;50.866;4.398;2023-05-07T14:24:21;24.20;99.90
29237;DHT22;16266;50.866;4.398;2023-05-07T14:26:48;24.20;99.90
29237;DHT22;16266;50.866;4.398;2023-05-07T14:29:13;24.30;99.90
29237;DHT22;16266;50.866;4.398;2023-05-07T14:31:41;24.50;99.90
29237;DHT22;16266;50.866;4.398;2023-05-07T14:34:06;24.40;99.90
29237;DHT22;16266;50.866;4.398;2023-05-07T14:36:32;24.30;99.90
29237;DHT22;16266;50.866;4.398;2023-05-07T14:38:58;24.30;99.90
29237;DHT22;16266;50.866;4.398;2023-05-07T14:41:25;24.30;99.90
29237;DHT22;16266;50.866;4.398;2023-05-07T14:43:50;24.30;99.90
29237;DHT22;16266;50.866;4.398;2023-05-07T14:46:19;24.20;99.90
29237;DHT22;16266;50.866;4.398;2023-05-07T14:48:47;24.10;99.90
29237;DHT22;16266;50.866;4.398;2023-05-07T14:51:13;24.30;99.90
29237;DHT22;16266;50.866;4.398;2023-05-07T14:53:40;24.40;99.90
29237;DHT22;16266;50.866;4.398;2023-05-07T14:56:06;24.60;99.90
29237;DHT22;16266;50.866;4.398;2023-05-07T14:58:32;24.70;99.90
29237;DHT22;16266;50.866;4.398;2023-05-07T15:00:59;24.70;99.90
29237;DHT22;16266;50.866;4.398;2023-05-07T15:03:25;24.60;99.90
29237;DHT22;16266;50.866;4.398;2023-05-07T15:05:51;24.50;99.90
29237;DHT22;16266;50.866;4.398;2023-05-07T15:08:17;24.60;99.90
29237;DHT22;16266;50.866;4.398;2023-05-07T15:10:43;24.50;99.90
29237;DHT22;16266;50.866;4.398;2023-05-07T15:13:10;24.40;99.90
29237;DHT22;16266;50.866;4.398;2023-05-07T15:15:36;24.30;99.90
29237;DHT22;16266;50.866;4.398;2023-05-07T15:18:03;24.30;99.90
29237;DHT22;16266;50.866;4.398;2023-05-07T15:20:29;24.30;99.90
29237;DHT22;16266;50.866;4.398;2023-05-07T15:22:55;24.10;99.90
29237;DHT22;16266;50.866;4.398;2023-05-07T15:25:21;24.10;99.90
29237;DHT22;16266;50.866;4.398;2023-05-07T15:27:47;23.90;99.90
29237;DHT22;16266;50.866;4.398;2023-05-07T15:30:13;23.80;99.90
29237;DHT22;16266;50.866;4.398;2023-05-07T15:32:40;23.70;99.90
29237;DHT22;16266;50.866;4.398;2023-05-07T15:35:06;23.60;99.90
29237;DHT22;16266;50.866;4.398;2023-05-07T15:37:33;23.50;99.90
29237;DHT22;16266;50.866;4.398;2023-05-07T15:39:58;23.20;99.90